sensor_id;sensor_type;location;lat;lon;timestamp;P1;durP1;ratioP1;P2;durP2;ratioP2
68976;SDS011;56029;52.568;13.588;2022-12-07T00:01:39;21.90;;;8.73;;
68976;SDS011;56029;52.568;13.588;2022-12-07T00:04:14;21.20;;;7.77;;
68976;SDS011;56029;52.568;13.588;2022-12-07T00:06:42;20.30;;;7.72;;
68976;SDS011;56029;52.568;13.588;2022-12-07T00:09:11;17.17;;;6.15;;
68976;SDS011;56029;52.568;13.588;2022-12-07T00:11:38;13.90;;;4.95;;
68976;SDS011;56029;52.568;13.588;2022-12-07T00:14:12;21.70;;;7.82;;
68976;SDS011;56029;52.568;13.588;2022-12-07T00:16:42;19.23;;;6.83;;
68976;SDS011;56029;52.568;13.588;2022-12-07T00:19:16;19.33;;;6.47;;
68976;SDS011;56029;52.568;13.588;2022-12-07T00:21:42;19.93;;;7.43;;
68976;SDS011;56029;52.568;13.588;2022-12-07T00:24:10;19.73;;;7.18;;
68976;SDS011;56029;52.568;13.588;2022-12-07T00:26:38;19.42;;;7.25;;
68976;SDS011;56029;52.568;13.588;2022-12-07T00:29:07;17.63;;;6.85;;
68976;SDS011;56029;52.568;13.588;2022-12-07T00:31:37;19.15;;;7.15;;
68976;SDS011;56029;52.568;13.588;2022-12-07T00:34:06;19.98;;;7.05;;
68976;SDS011;56029;52.568;13.588;2022-12-07T00:36:33;16.63;;;6.60;;
68976;SDS011;56029;52.568;13.588;2022-12-07T00:38:59;15.93;;;6.40;;
68976;SDS011;56029;52.568;13.588;2022-12-07T00:41:28;15.68;;;5.60;;
68976;SDS011;56029;52.568;13.588;2022-12-07T00:43:54;12.90;;;5.22;;
68976;SDS011;56029;52.568;13.588;2022-12-07T00:46:20;15.63;;;6.30;;
68976;SDS011;56029;52.568;13.588;2022-12-07T00:48:50;15.18;;;5.85;;
68976;SDS011;56029;52.568;13.588;2022-12-07T00:51:17;14.77;;;6.30;;
68976;SDS011;56029;52.568;13.588;2022-12-07T00:53:45;16.00;;;6.20;;
68976;SDS011;56029;52.568;13.588;2022-12-07T00:58:50;17.25;;;6.60;;
68976;SDS011;56029;52.568;13.588;2022-12-07T01:01:27;17.53;;;6.77;;
68976;SDS011;56029;52.568;13.588;2022-12-07T01:03:57;17.08;;;6.20;;
68976;SDS011;56029;52.568;13.588;2022-12-07T01:06:23;18.20;;;6.65;;
68976;SDS011;56029;52.568;13.588;2022-12-07T01:08:53;17.02;;;6.50;;
68976;SDS011;56029;52.568;13.588;2022-12-07T01:11:30;16.40;;;7.17;;
68976;SDS011;56029;52.568;13.588;2022-12-07T01:13:56;17.17;;;7.05;;
68976;SDS011;56029;52.568;13.588;2022-12-07T01:16:24;15.73;;;6.70;;
68976;SDS011;56029;52.568;13.588;2022-12-07T01:18:55;15.98;;;6.25;;
68976;SDS011;56029;52.568;13.588;2022-12-07T01:21:26;16.53;;;6.63;;
68976;SDS011;56029;52.568;13.588;2022-12-07T01:23:57;17.38;;;6.93;;
68976;SDS011;56029;52.568;13.588;2022-12-07T01:26:28;17.33;;;6.38;;
68976;SDS011;56029;52.568;13.588;2022-12-07T01:28:54;16.42;;;6.68;;
68976;SDS011;56029;52.568;13.588;2022-12-07T01:31:22;16.20;;;6.17;;
68976;SDS011;56029;52.568;13.588;2022-12-07T01:33:51;14.90;;;6.03;;
68976;SDS011;56029;52.568;13.588;2022-12-07T01:38:44;15.27;;;6.40;;
68976;SDS011;56029;52.568;13.588;2022-12-07T01:41:11;17.38;;;6.57;;
68976;SDS011;56029;52.568;13.588;2022-12-07T01:44:06;15.60;;;6.15;;
68976;SDS011;56029;52.568;13.588;2022-12-07T01:46:43;15.68;;;6.10;;
68976;SDS011;56029;52.568;13.588;2022-12-07T01:49:16;14.43;;;6.22;;
68976;SDS011;56029;52.568;13.588;2022-12-07T01:51:56;15.80;;;6.03;;
68976;SDS011;56029;52.568;13.588;2022-12-07T01:54:27;14.40;;;6.28;;
68976;SDS011;56029;52.568;13.588;2022-12-07T01:56:53;14.43;;;6.23;;
68976;SDS011;56029;52.568;13.588;2022-12-07T01:59:23;15.57;;;6.50;;
68976;SDS011;56029;52.568;13.588;2022-12-07T02:01:52;14.18;;;5.93;;
68976;SDS011;56029;52.568;13.588;2022-12-07T02:04:19;14.73;;;5.90;;
68976;SDS011;56029;52.568;13.588;2022-12-07T02:06:46;16.20;;;6.07;;
68976;SDS011;56029;52.568;13.588;2022-12-07T02:09:12;15.10;;;5.88;;
68976;SDS011;56029;52.568;13.588;2022-12-07T02:11:38;14.57;;;5.97;;
68976;SDS011;56029;52.568;13.588;2022-12-07T02:14:05;16.08;;;6.57;;
68976;SDS011;56029;52.568;13.588;2022-12-07T02:16:46;14.33;;;6.23;;
68976;SDS011;56029;52.568;13.588;2022-12-07T02:22:41;15.23;;;5.90;;
68976;SDS011;56029;52.568;13.588;2022-12-07T02:31:29;15.75;;;5.40;;
68976;SDS011;56029;52.568;13.588;2022-12-07T02:34:08;11.88;;;4.65;;
68976;SDS011;56029;52.568;13.588;2022-12-07T02:36:42;14.52;;;5.80;;
68976;SDS011;56029;52.568;13.588;2022-12-07T02:39:18;12.60;;;4.97;;
68976;SDS011;56029;52.568;13.588;2022-12-07T02:42:09;12.43;;;5.40;;
68976;SDS011;56029;52.568;13.588;2022-12-07T02:44:42;14.25;;;5.57;;
68976;SDS011;56029;52.568;13.588;2022-12-07T02:47:11;11.75;;;5.32;;
68976;SDS011;56029;52.568;13.588;2022-12-07T02:49:39;12.63;;;5.45;;
68976;SDS011;56029;52.568;13.588;2022-12-07T02:52:05;13.00;;;5.33;;
68976;SDS011;56029;52.568;13.588;2022-12-07T02:54:31;13.77;;;5.30;;
68976;SDS011;56029;52.568;13.588;2022-12-07T02:57:07;12.13;;;5.30;;
68976;SDS011;56029;52.568;13.588;2022-12-07T03:00:04;12.38;;;5.38;;
68976;SDS011;56029;52.568;13.588;2022-12-07T03:10:49;13.18;;;5.55;;
68976;SDS011;56029;52.568;13.588;2022-12-07T03:13:42;12.38;;;5.40;;
68976;SDS011;56029;52.568;13.588;2022-12-07T03:16:20;13.45;;;5.10;;
68976;SDS011;56029;52.568;13.588;2022-12-07T03:21:23;13.30;;;5.67;;
68976;SDS011;56029;52.568;13.588;2022-12-07T03:23:54;11.65;;;5.03;;
68976;SDS011;56029;52.568;13.588;2022-12-07T03:26:22;16.67;;;5.40;;
68976;SDS011;56029;52.568;13.588;2022-12-07T03:28:52;14.05;;;5.70;;
68976;SDS011;56029;52.568;13.588;2022-12-07T03:31:25;12.88;;;5.40;;
68976;SDS011;56029;52.568;13.588;2022-12-07T03:36:44;14.10;;;5.90;;
68976;SDS011;56029;52.568;13.588;2022-12-07T03:39:34;14.23;;;5.80;;
68976;SDS011;56029;52.568;13.588;2022-12-07T03:42:05;14.70;;;6.30;;
68976;SDS011;56029;52.568;13.588;2022-12-07T03:44:34;13.63;;;6.03;;
68976;SDS011;56029;52.568;13.588;2022-12-07T03:47:05;13.77;;;5.83;;
68976;SDS011;56029;52.568;13.588;2022-12-07T03:49:40;14.65;;;6.22;;
68976;SDS011;56029;52.568;13.588;2022-12-07T03:55:24;13.88;;;6.07;;
68976;SDS011;56029;52.568;13.588;2022-12-07T03:57:57;18.08;;;6.97;;
68976;SDS011;56029;52.568;13.588;2022-12-07T04:00:26;15.10;;;6.33;;
68976;SDS011;56029;52.568;13.588;2022-12-07T04:02:52;16.42;;;6.68;;
68976;SDS011;56029;52.568;13.588;2022-12-07T04:05:18;17.53;;;7.30;;
68976;SDS011;56029;52.568;13.588;2022-12-07T04:07:44;17.27;;;6.97;;
68976;SDS011;56029;52.568;13.588;2022-12-07T04:10:10;17.20;;;6.83;;
68976;SDS011;56029;52.568;13.588;2022-12-07T04:12:36;16.92;;;7.38;;
68976;SDS011;56029;52.568;13.588;2022-12-07T04:15:02;15.77;;;6.70;;
68976;SDS011;56029;52.568;13.588;2022-12-07T04:17:28;16.63;;;6.97;;
68976;SDS011;56029;52.568;13.588;2022-12-07T04:19:54;17.87;;;7.07;;
68976;SDS011;56029;52.568;13.588;2022-12-07T04:22:19;15.43;;;6.60;;
68976;SDS011;56029;52.568;13.588;2022-12-07T04:24:45;17.70;;;7.00;;
68976;SDS011;56029;52.568;13.588;2022-12-07T04:27:10;17.37;;;7.83;;
68976;SDS011;56029;52.568;13.588;2022-12-07T04:29:36;17.90;;;7.30;;
68976;SDS011;56029;52.568;13.588;2022-12-07T04:32:02;17.63;;;7.10;;
68976;SDS011;56029;52.568;13.588;2022-12-07T04:34:27;16.33;;;7.40;;
68976;SDS011;56029;52.568;13.588;2022-12-07T04:36:53;19.27;;;6.90;;
68976;SDS011;56029;52.568;13.588;2022-12-07T04:39:26;18.47;;;8.07;;
68976;SDS011;56029;52.568;13.588;2022-12-07T04:41:56;17.42;;;6.95;;
68976;SDS011;56029;52.568;13.588;2022-12-07T04:44:23;20.27;;;8.13;;
68976;SDS011;56029;52.568;13.588;2022-12-07T04:46:50;20.38;;;8.00;;
68976;SDS011;56029;52.568;13.588;2022-12-07T04:49:17;19.70;;;7.90;;
68976;SDS011;56029;52.568;13.588;2022-12-07T04:51:43;21.40;;;8.02;;
68976;SDS011;56029;52.568;13.588;2022-12-07T04:54:10;19.38;;;7.97;;
68976;SDS011;56029;52.568;13.588;2022-12-07T04:56:36;19.15;;;7.80;;
68976;SDS011;56029;52.568;13.588;2022-12-07T04:59:03;19.95;;;8.15;;
68976;SDS011;56029;52.568;13.588;2022-12-07T05:01:28;22.90;;;8.30;;
68976;SDS011;56029;52.568;13.588;2022-12-07T05:03:54;22.60;;;9.02;;
68976;SDS011;56029;52.568;13.588;2022-12-07T05:06:19;22.03;;;9.47;;
68976;SDS011;56029;52.568;13.588;2022-12-07T05:08:45;24.10;;;9.48;;
68976;SDS011;56029;52.568;13.588;2022-12-07T05:11:11;22.97;;;9.50;;
68976;SDS011;56029;52.568;13.588;2022-12-07T05:13:57;25.80;;;9.77;;
68976;SDS011;56029;52.568;13.588;2022-12-07T05:16:23;26.77;;;10.13;;
68976;SDS011;56029;52.568;13.588;2022-12-07T05:18:49;23.20;;;9.47;;
68976;SDS011;56029;52.568;13.588;2022-12-07T05:21:14;25.83;;;9.82;;
68976;SDS011;56029;52.568;13.588;2022-12-07T05:23:40;24.90;;;10.30;;
68976;SDS011;56029;52.568;13.588;2022-12-07T05:26:05;27.30;;;10.40;;
68976;SDS011;56029;52.568;13.588;2022-12-07T05:28:31;28.48;;;10.77;;
68976;SDS011;56029;52.568;13.588;2022-12-07T05:30:56;28.10;;;10.73;;
68976;SDS011;56029;52.568;13.588;2022-12-07T05:33:22;28.73;;;11.20;;
68976;SDS011;56029;52.568;13.588;2022-12-07T05:35:47;29.27;;;10.82;;
68976;SDS011;56029;52.568;13.588;2022-12-07T05:38:13;27.13;;;10.30;;
68976;SDS011;56029;52.568;13.588;2022-12-07T05:40:38;29.40;;;11.27;;
68976;SDS011;56029;52.568;13.588;2022-12-07T05:43:04;27.40;;;11.60;;
68976;SDS011;56029;52.568;13.588;2022-12-07T05:45:30;28.77;;;11.87;;
68976;SDS011;56029;52.568;13.588;2022-12-07T05:47:55;32.65;;;11.70;;
68976;SDS011;56029;52.568;13.588;2022-12-07T05:50:21;33.13;;;12.20;;
68976;SDS011;56029;52.568;13.588;2022-12-07T05:52:46;31.30;;;11.60;;
68976;SDS011;56029;52.568;13.588;2022-12-07T05:55:12;28.70;;;11.90;;
68976;SDS011;56029;52.568;13.588;2022-12-07T05:57:37;30.83;;;11.60;;
68976;SDS011;56029;52.568;13.588;2022-12-07T06:00:03;31.97;;;11.67;;
68976;SDS011;56029;52.568;13.588;2022-12-07T06:02:29;29.75;;;11.95;;
68976;SDS011;56029;52.568;13.588;2022-12-07T06:04:55;35.07;;;13.07;;
68976;SDS011;56029;52.568;13.588;2022-12-07T06:07:21;36.05;;;12.45;;
68976;SDS011;56029;52.568;13.588;2022-12-07T06:09:46;34.03;;;12.23;;
68976;SDS011;56029;52.568;13.588;2022-12-07T06:12:12;34.53;;;12.80;;
68976;SDS011;56029;52.568;13.588;2022-12-07T06:14:57;33.20;;;12.53;;
68976;SDS011;56029;52.568;13.588;2022-12-07T06:17:23;32.17;;;12.50;;
68976;SDS011;56029;52.568;13.588;2022-12-07T06:19:49;36.75;;;13.32;;
68976;SDS011;56029;52.568;13.588;2022-12-07T06:22:15;33.17;;;12.33;;
68976;SDS011;56029;52.568;13.588;2022-12-07T06:24:41;38.78;;;13.48;;
68976;SDS011;56029;52.568;13.588;2022-12-07T06:27:07;34.15;;;13.38;;
68976;SDS011;56029;52.568;13.588;2022-12-07T06:29:33;32.15;;;12.02;;
68976;SDS011;56029;52.568;13.588;2022-12-07T06:31:59;32.97;;;12.43;;
68976;SDS011;56029;52.568;13.588;2022-12-07T06:34:25;32.43;;;12.67;;
68976;SDS011;56029;52.568;13.588;2022-12-07T06:36:51;36.08;;;12.25;;
68976;SDS011;56029;52.568;13.588;2022-12-07T06:39:20;29.77;;;11.85;;
68976;SDS011;56029;52.568;13.588;2022-12-07T06:41:47;34.58;;;12.55;;
68976;SDS011;56029;52.568;13.588;2022-12-07T06:44:13;35.00;;;12.20;;
68976;SDS011;56029;52.568;13.588;2022-12-07T06:46:38;30.85;;;11.43;;
68976;SDS011;56029;52.568;13.588;2022-12-07T06:49:04;28.83;;;11.00;;
68976;SDS011;56029;52.568;13.588;2022-12-07T06:51:31;32.67;;;12.03;;
68976;SDS011;56029;52.568;13.588;2022-12-07T06:53:57;29.88;;;11.80;;
68976;SDS011;56029;52.568;13.588;2022-12-07T06:56:23;28.58;;;11.38;;
68976;SDS011;56029;52.568;13.588;2022-12-07T06:58:49;33.70;;;11.53;;
68976;SDS011;56029;52.568;13.588;2022-12-07T07:01:15;31.58;;;11.95;;
68976;SDS011;56029;52.568;13.588;2022-12-07T07:03:42;29.90;;;11.32;;
68976;SDS011;56029;52.568;13.588;2022-12-07T07:06:09;31.33;;;11.83;;
68976;SDS011;56029;52.568;13.588;2022-12-07T07:08:35;30.33;;;11.20;;
68976;SDS011;56029;52.568;13.588;2022-12-07T07:11:05;32.35;;;11.52;;
68976;SDS011;56029;52.568;13.588;2022-12-07T07:13:31;31.48;;;11.85;;
68976;SDS011;56029;52.568;13.588;2022-12-07T07:15:57;31.30;;;11.23;;
68976;SDS011;56029;52.568;13.588;2022-12-07T07:18:23;32.88;;;12.18;;
68976;SDS011;56029;52.568;13.588;2022-12-07T07:20:50;31.67;;;11.63;;
68976;SDS011;56029;52.568;13.588;2022-12-07T07:23:16;29.13;;;11.73;;
68976;SDS011;56029;52.568;13.588;2022-12-07T07:25:42;29.70;;;12.27;;
68976;SDS011;56029;52.568;13.588;2022-12-07T07:28:07;31.05;;;11.80;;
68976;SDS011;56029;52.568;13.588;2022-12-07T07:30:33;24.03;;;9.13;;
68976;SDS011;56029;52.568;13.588;2022-12-07T07:32:59;26.48;;;11.27;;
68976;SDS011;56029;52.568;13.588;2022-12-07T07:35:26;26.47;;;11.63;;
68976;SDS011;56029;52.568;13.588;2022-12-07T07:37:53;29.17;;;11.43;;
68976;SDS011;56029;52.568;13.588;2022-12-07T07:40:19;31.95;;;11.32;;
68976;SDS011;56029;52.568;13.588;2022-12-07T07:42:48;30.30;;;11.77;;
68976;SDS011;56029;52.568;13.588;2022-12-07T07:45:15;29.30;;;11.03;;
68976;SDS011;56029;52.568;13.588;2022-12-07T07:47:40;31.35;;;11.38;;
68976;SDS011;56029;52.568;13.588;2022-12-07T07:50:06;29.47;;;10.63;;
68976;SDS011;56029;52.568;13.588;2022-12-07T07:52:32;26.58;;;10.45;;
68976;SDS011;56029;52.568;13.588;2022-12-07T07:54:57;25.27;;;10.33;;
68976;SDS011;56029;52.568;13.588;2022-12-07T07:57:23;19.80;;;6.20;;
68976;SDS011;56029;52.568;13.588;2022-12-07T07:59:49;25.20;;;10.37;;
68976;SDS011;56029;52.568;13.588;2022-12-07T08:02:15;22.20;;;8.20;;
68976;SDS011;56029;52.568;13.588;2022-12-07T08:04:43;19.85;;;8.35;;
68976;SDS011;56029;52.568;13.588;2022-12-07T08:07:08;16.38;;;6.97;;
68976;SDS011;56029;52.568;13.588;2022-12-07T08:09:34;20.40;;;7.63;;
68976;SDS011;56029;52.568;13.588;2022-12-07T08:11:59;15.47;;;6.70;;
68976;SDS011;56029;52.568;13.588;2022-12-07T08:14:26;14.95;;;5.68;;
68976;SDS011;56029;52.568;13.588;2022-12-07T08:16:52;15.90;;;6.77;;
68976;SDS011;56029;52.568;13.588;2022-12-07T08:19:18;18.27;;;7.05;;
68976;SDS011;56029;52.568;13.588;2022-12-07T08:21:43;13.53;;;5.70;;
68976;SDS011;56029;52.568;13.588;2022-12-07T08:24:09;12.93;;;5.70;;
68976;SDS011;56029;52.568;13.588;2022-12-07T08:26:34;13.67;;;5.57;;
68976;SDS011;56029;52.568;13.588;2022-12-07T08:29:01;13.77;;;5.82;;
68976;SDS011;56029;52.568;13.588;2022-12-07T08:31:26;13.17;;;5.83;;
68976;SDS011;56029;52.568;13.588;2022-12-07T08:33:53;13.55;;;5.43;;
68976;SDS011;56029;52.568;13.588;2022-12-07T08:36:18;12.03;;;5.47;;
68976;SDS011;56029;52.568;13.588;2022-12-07T08:38:44;11.95;;;5.55;;
68976;SDS011;56029;52.568;13.588;2022-12-07T08:41:10;14.55;;;5.95;;
68976;SDS011;56029;52.568;13.588;2022-12-07T08:43:36;12.10;;;5.43;;
68976;SDS011;56029;52.568;13.588;2022-12-07T08:46:06;12.18;;;5.38;;
68976;SDS011;56029;52.568;13.588;2022-12-07T08:48:42;12.63;;;4.68;;
68976;SDS011;56029;52.568;13.588;2022-12-07T08:51:11;10.07;;;4.30;;
68976;SDS011;56029;52.568;13.588;2022-12-07T08:53:38;9.03;;;3.60;;
68976;SDS011;56029;52.568;13.588;2022-12-07T08:56:05;9.77;;;3.75;;
68976;SDS011;56029;52.568;13.588;2022-12-07T08:58:32;11.43;;;4.35;;
68976;SDS011;56029;52.568;13.588;2022-12-07T09:00:58;10.93;;;4.38;;
68976;SDS011;56029;52.568;13.588;2022-12-07T09:03:24;11.07;;;4.40;;
68976;SDS011;56029;52.568;13.588;2022-12-07T09:05:49;10.23;;;3.90;;
68976;SDS011;56029;52.568;13.588;2022-12-07T09:08:15;9.15;;;3.40;;
68976;SDS011;56029;52.568;13.588;2022-12-07T09:10:41;7.50;;;3.40;;
68976;SDS011;56029;52.568;13.588;2022-12-07T09:13:06;9.13;;;3.27;;
68976;SDS011;56029;52.568;13.588;2022-12-07T09:15:32;6.00;;;2.65;;
68976;SDS011;56029;52.568;13.588;2022-12-07T09:17:58;6.73;;;2.57;;
68976;SDS011;56029;52.568;13.588;2022-12-07T09:20:23;10.67;;;3.20;;
68976;SDS011;56029;52.568;13.588;2022-12-07T09:22:49;6.28;;;2.60;;
68976;SDS011;56029;52.568;13.588;2022-12-07T09:25:14;7.37;;;2.83;;
68976;SDS011;56029;52.568;13.588;2022-12-07T09:27:40;6.43;;;2.78;;
68976;SDS011;56029;52.568;13.588;2022-12-07T09:30:06;6.73;;;2.93;;
68976;SDS011;56029;52.568;13.588;2022-12-07T09:32:33;8.75;;;3.33;;
68976;SDS011;56029;52.568;13.588;2022-12-07T09:34:58;4.23;;;1.97;;
68976;SDS011;56029;52.568;13.588;2022-12-07T09:37:24;6.97;;;2.53;;
68976;SDS011;56029;52.568;13.588;2022-12-07T09:39:49;7.20;;;2.93;;
68976;SDS011;56029;52.568;13.588;2022-12-07T09:44:59;5.50;;;2.50;;
68976;SDS011;56029;52.568;13.588;2022-12-07T09:47:25;2.85;;;1.40;;
68976;SDS011;56029;52.568;13.588;2022-12-07T09:49:51;3.03;;;1.65;;
68976;SDS011;56029;52.568;13.588;2022-12-07T09:52:25;3.70;;;1.70;;
68976;SDS011;56029;52.568;13.588;2022-12-07T09:54:53;4.35;;;1.80;;
68976;SDS011;56029;52.568;13.588;2022-12-07T09:57:20;4.90;;;2.10;;
68976;SDS011;56029;52.568;13.588;2022-12-07T09:59:56;4.68;;;2.30;;
68976;SDS011;56029;52.568;13.588;2022-12-07T10:05:00;4.80;;;2.13;;
68976;SDS011;56029;52.568;13.588;2022-12-07T10:07:26;5.77;;;2.57;;
68976;SDS011;56029;52.568;13.588;2022-12-07T10:09:51;5.78;;;2.33;;
68976;SDS011;56029;52.568;13.588;2022-12-07T10:12:17;5.80;;;2.47;;
68976;SDS011;56029;52.568;13.588;2022-12-07T10:14:53;5.97;;;2.30;;
68976;SDS011;56029;52.568;13.588;2022-12-07T10:20:25;4.05;;;1.98;;
68976;SDS011;56029;52.568;13.588;2022-12-07T10:22:56;4.55;;;1.90;;
68976;SDS011;56029;52.568;13.588;2022-12-07T10:25:25;4.47;;;2.10;;
68976;SDS011;56029;52.568;13.588;2022-12-07T10:27:57;4.53;;;1.85;;
68976;SDS011;56029;52.568;13.588;2022-12-07T10:30:24;4.23;;;2.33;;
68976;SDS011;56029;52.568;13.588;2022-12-07T10:32:50;4.88;;;2.40;;
68976;SDS011;56029;52.568;13.588;2022-12-07T10:37:45;4.88;;;2.17;;
68976;SDS011;56029;52.568;13.588;2022-12-07T10:40:25;2.80;;;1.42;;
68976;SDS011;56029;52.568;13.588;2022-12-07T10:48:43;4.40;;;2.40;;
68976;SDS011;56029;52.568;13.588;2022-12-07T10:53:59;3.50;;;1.77;;
68976;SDS011;56029;52.568;13.588;2022-12-07T10:57:10;3.50;;;1.85;;
68976;SDS011;56029;52.568;13.588;2022-12-07T11:02:42;4.27;;;2.17;;
68976;SDS011;56029;52.568;13.588;2022-12-07T11:05:42;4.93;;;2.17;;
68976;SDS011;56029;52.568;13.588;2022-12-07T11:13:48;4.65;;;2.30;;
68976;SDS011;56029;52.568;13.588;2022-12-07T11:16:34;4.43;;;2.17;;
68976;SDS011;56029;52.568;13.588;2022-12-07T11:19:05;5.80;;;2.78;;
68976;SDS011;56029;52.568;13.588;2022-12-07T11:24:17;5.95;;;3.10;;
68976;SDS011;56029;52.568;13.588;2022-12-07T11:29:46;5.57;;;2.43;;
68976;SDS011;56029;52.568;13.588;2022-12-07T11:37:59;6.05;;;2.70;;
68976;SDS011;56029;52.568;13.588;2022-12-07T11:40:35;8.45;;;3.70;;
68976;SDS011;56029;52.568;13.588;2022-12-07T11:43:06;7.73;;;3.10;;
68976;SDS011;56029;52.568;13.588;2022-12-07T11:45:37;6.60;;;2.90;;
68976;SDS011;56029;52.568;13.588;2022-12-07T11:48:15;6.82;;;3.17;;
68976;SDS011;56029;52.568;13.588;2022-12-07T11:50:51;5.82;;;2.63;;
68976;SDS011;56029;52.568;13.588;2022-12-07T11:53:21;6.65;;;3.00;;
68976;SDS011;56029;52.568;13.588;2022-12-07T11:56:12;7.43;;;3.20;;
68976;SDS011;56029;52.568;13.588;2022-12-07T12:04:13;7.40;;;3.80;;
68976;SDS011;56029;52.568;13.588;2022-12-07T12:06:48;7.15;;;3.33;;
68976;SDS011;56029;52.568;13.588;2022-12-07T12:09:29;8.20;;;3.45;;
68976;SDS011;56029;52.568;13.588;2022-12-07T12:12:13;6.07;;;3.20;;
68976;SDS011;56029;52.568;13.588;2022-12-07T12:15:08;8.10;;;3.47;;
68976;SDS011;56029;52.568;13.588;2022-12-07T12:18:11;6.43;;;2.92;;
68976;SDS011;56029;52.568;13.588;2022-12-07T12:20:51;7.90;;;3.67;;
68976;SDS011;56029;52.568;13.588;2022-12-07T12:26:03;9.80;;;4.00;;
68976;SDS011;56029;52.568;13.588;2022-12-07T12:28:41;9.35;;;4.10;;
68976;SDS011;56029;52.568;13.588;2022-12-07T12:36:21;11.20;;;4.82;;
68976;SDS011;56029;52.568;13.588;2022-12-07T12:38:48;12.90;;;5.80;;
68976;SDS011;56029;52.568;13.588;2022-12-07T12:44:02;20.33;;;8.05;;
68976;SDS011;56029;52.568;13.588;2022-12-07T12:46:58;22.02;;;8.68;;
68976;SDS011;56029;52.568;13.588;2022-12-07T12:49:30;19.27;;;8.80;;
68976;SDS011;56029;52.568;13.588;2022-12-07T12:54:35;14.52;;;6.20;;
68976;SDS011;56029;52.568;13.588;2022-12-07T12:57:16;12.25;;;5.35;;
68976;SDS011;56029;52.568;13.588;2022-12-07T13:02:15;9.90;;;4.43;;
68976;SDS011;56029;52.568;13.588;2022-12-07T13:04:58;9.00;;;4.13;;
68976;SDS011;56029;52.568;13.588;2022-12-07T13:15:45;10.10;;;4.30;;
68976;SDS011;56029;52.568;13.588;2022-12-07T13:21:00;7.72;;;3.60;;
68976;SDS011;56029;52.568;13.588;2022-12-07T13:23:31;11.65;;;3.60;;
68976;SDS011;56029;52.568;13.588;2022-12-07T13:26:02;7.65;;;3.15;;
68976;SDS011;56029;52.568;13.588;2022-12-07T13:29:26;10.87;;;3.90;;
68976;SDS011;56029;52.568;13.588;2022-12-07T13:31:55;12.20;;;4.55;;
68976;SDS011;56029;52.568;13.588;2022-12-07T13:34:33;9.05;;;4.03;;
68976;SDS011;56029;52.568;13.588;2022-12-07T13:37:02;10.05;;;3.90;;
68976;SDS011;56029;52.568;13.588;2022-12-07T13:39:36;7.82;;;3.40;;
68976;SDS011;56029;52.568;13.588;2022-12-07T13:42:30;10.53;;;4.03;;
68976;SDS011;56029;52.568;13.588;2022-12-07T13:44:57;11.05;;;3.80;;
68976;SDS011;56029;52.568;13.588;2022-12-07T13:47:41;7.38;;;3.58;;
68976;SDS011;56029;52.568;13.588;2022-12-07T13:50:26;9.13;;;3.72;;
68976;SDS011;56029;52.568;13.588;2022-12-07T13:52:57;8.00;;;3.20;;
68976;SDS011;56029;52.568;13.588;2022-12-07T13:55:24;9.50;;;3.00;;
68976;SDS011;56029;52.568;13.588;2022-12-07T13:57:51;6.10;;;2.50;;
68976;SDS011;56029;52.568;13.588;2022-12-07T14:05:27;9.90;;;3.28;;
68976;SDS011;56029;52.568;13.588;2022-12-07T14:07:55;6.93;;;2.90;;
68976;SDS011;56029;52.568;13.588;2022-12-07T14:10:26;7.97;;;3.17;;
68976;SDS011;56029;52.568;13.588;2022-12-07T14:12:53;7.20;;;2.78;;
68976;SDS011;56029;52.568;13.588;2022-12-07T14:15:21;7.95;;;3.10;;
68976;SDS011;56029;52.568;13.588;2022-12-07T14:17:52;7.90;;;2.35;;
68976;SDS011;56029;52.568;13.588;2022-12-07T14:20:33;5.70;;;1.87;;
68976;SDS011;56029;52.568;13.588;2022-12-07T14:23:01;7.90;;;3.10;;
68976;SDS011;56029;52.568;13.588;2022-12-07T14:25:50;5.85;;;1.85;;
68976;SDS011;56029;52.568;13.588;2022-12-07T14:28:27;7.82;;;2.90;;
68976;SDS011;56029;52.568;13.588;2022-12-07T14:30:56;7.88;;;2.60;;
68976;SDS011;56029;52.568;13.588;2022-12-07T14:33:22;4.43;;;1.70;;
68976;SDS011;56029;52.568;13.588;2022-12-07T14:35:49;7.45;;;2.80;;
68976;SDS011;56029;52.568;13.588;2022-12-07T14:38:14;11.85;;;3.28;;
68976;SDS011;56029;52.568;13.588;2022-12-07T14:40:40;5.97;;;2.23;;
68976;SDS011;56029;52.568;13.588;2022-12-07T14:43:09;8.77;;;3.37;;
68976;SDS011;56029;52.568;13.588;2022-12-07T14:45:38;5.47;;;2.15;;
68976;SDS011;56029;52.568;13.588;2022-12-07T14:48:05;8.35;;;2.60;;
68976;SDS011;56029;52.568;13.588;2022-12-07T14:50:37;6.32;;;2.60;;
68976;SDS011;56029;52.568;13.588;2022-12-07T14:53:12;8.32;;;2.78;;
68976;SDS011;56029;52.568;13.588;2022-12-07T14:55:40;9.00;;;2.90;;
68976;SDS011;56029;52.568;13.588;2022-12-07T14:58:07;4.68;;;1.95;;
68976;SDS011;56029;52.568;13.588;2022-12-07T15:00:38;6.65;;;2.85;;
68976;SDS011;56029;52.568;13.588;2022-12-07T15:03:04;10.20;;;3.40;;
68976;SDS011;56029;52.568;13.588;2022-12-07T15:05:30;7.53;;;2.90;;
68976;SDS011;56029;52.568;13.588;2022-12-07T15:07:55;8.35;;;3.70;;
68976;SDS011;56029;52.568;13.588;2022-12-07T15:10:22;7.47;;;2.60;;
68976;SDS011;56029;52.568;13.588;2022-12-07T15:12:49;6.75;;;2.92;;
68976;SDS011;56029;52.568;13.588;2022-12-07T15:15:15;6.85;;;2.97;;
68976;SDS011;56029;52.568;13.588;2022-12-07T15:17:42;9.65;;;2.92;;
68976;SDS011;56029;52.568;13.588;2022-12-07T15:20:09;7.67;;;3.50;;
68976;SDS011;56029;52.568;13.588;2022-12-07T15:22:37;6.80;;;2.80;;
68976;SDS011;56029;52.568;13.588;2022-12-07T15:25:02;10.33;;;3.07;;
68976;SDS011;56029;52.568;13.588;2022-12-07T15:27:30;10.18;;;3.95;;
68976;SDS011;56029;52.568;13.588;2022-12-07T15:29:56;7.70;;;2.90;;
68976;SDS011;56029;52.568;13.588;2022-12-07T15:32:21;12.73;;;4.77;;
68976;SDS011;56029;52.568;13.588;2022-12-07T15:34:48;7.85;;;3.25;;
68976;SDS011;56029;52.568;13.588;2022-12-07T15:37:15;6.72;;;2.55;;
68976;SDS011;56029;52.568;13.588;2022-12-07T15:39:41;6.70;;;2.70;;
68976;SDS011;56029;52.568;13.588;2022-12-07T15:42:06;8.07;;;3.08;;
68976;SDS011;56029;52.568;13.588;2022-12-07T15:44:32;11.83;;;3.00;;
68976;SDS011;56029;52.568;13.588;2022-12-07T15:47:16;10.13;;;4.68;;
68976;SDS011;56029;52.568;13.588;2022-12-07T15:49:42;10.82;;;3.70;;
68976;SDS011;56029;52.568;13.588;2022-12-07T15:52:07;8.80;;;3.90;;
68976;SDS011;56029;52.568;13.588;2022-12-07T15:54:33;8.43;;;3.35;;
68976;SDS011;56029;52.568;13.588;2022-12-07T15:56:59;5.43;;;1.90;;
68976;SDS011;56029;52.568;13.588;2022-12-07T15:59:26;6.65;;;2.60;;
68976;SDS011;56029;52.568;13.588;2022-12-07T16:01:52;7.47;;;3.47;;
68976;SDS011;56029;52.568;13.588;2022-12-07T16:04:18;8.67;;;3.50;;
68976;SDS011;56029;52.568;13.588;2022-12-07T16:06:44;7.63;;;3.08;;
68976;SDS011;56029;52.568;13.588;2022-12-07T16:09:10;8.90;;;2.23;;
68976;SDS011;56029;52.568;13.588;2022-12-07T16:11:35;8.20;;;3.23;;
68976;SDS011;56029;52.568;13.588;2022-12-07T16:14:01;9.32;;;3.50;;
68976;SDS011;56029;52.568;13.588;2022-12-07T16:16:27;13.88;;;5.65;;
68976;SDS011;56029;52.568;13.588;2022-12-07T16:18:52;6.03;;;1.97;;
68976;SDS011;56029;52.568;13.588;2022-12-07T16:21:19;3.90;;;1.50;;
68976;SDS011;56029;52.568;13.588;2022-12-07T16:23:45;2.28;;;1.17;;
68976;SDS011;56029;52.568;13.588;2022-12-07T16:26:12;2.63;;;1.30;;